Nambe, New Mexico
Current Conditions -  °F | °C
As of 7:53 AM on Thursday 23 Oct 2014 (Local Time) from KSAF Reporting Station
Clear Clear  
Wind Chill: 37°   Ceiling: Unl
Heat Index: 43°   Visibility: 10mi
Dew Point: 34°   Wind: 12mph
Humidity: 71%   Direction: 10°N
Pressure: 30.3"   Gusts: NA
Location:  35.7017°N, 105.921°W
Report Text: KSAF 231353Z 01010KT 10SM CLR 06/01 A3030 RMK AO2 SLP216 T00610011 $
Loading
Personal Weather Stations






























Interactive Weather Map
Tropical Storm Tracking
New forecast layout! Learn more

10-Day Weather Forecast

Advertisements
Track Severe Weather on mobile